Time;durP1;ratioP1;P1;durP2;ratioP2;P2;SDS_P1;SDS_P2;PMS_P1;PMS_P2;Temp;Humidity;BMP_temperature;BMP_pressure;BME280_temperature;BME280_humidity;BME280_pressure;Samples;Min_cycle;Max_cycle;Signal;HPM_P1;HPM_P2
2022/07/15 06:50:49;;;;;;;7.82;1.30;;;;;;;23.27;39.92;99341.69;5130431;27;20326;-77
2022/07/15 06:53:16;;;;;;;3.25;1.10;;;;;;;23.70;38.53;99341.75;5110253;27;20113;-77
2022/07/15 06:55:42;;;;;;;3.00;1.30;;;;;;;24.20;38.05;99345.13;5107421;27;20047;-76
2022/07/15 06:58:09;;;;;;;4.78;1.08;;;;;;;24.15;36.84;99339.56;5120510;27;20401;-77
2022/07/15 07:00:35;;;;;;;5.63;1.40;;;;;;;24.30;37.20;99324.88;5123589;27;20126;-77
2022/07/15 07:03:02;;;;;;;6.05;1.92;;;;;;;24.79;37.41;99343.13;5127415;27;20052;-77
2022/07/15 07:05:28;;;;;;;2.42;1.02;;;;;;;24.70;36.83;99329.75;5128826;27;20063;-77
2022/07/15 07:07:58;;;;;;;2.88;1.10;;;;;;;24.98;35.68;99335.94;5128592;27;20077;-77
2022/07/15 07:10:25;;;;;;;7.03;1.27;;;;;;;25.29;35.13;99349.03;5128691;27;20047;-77
2022/07/15 07:12:52;;;;;;;4.10;1.30;;;;;;;25.13;34.38;99332.34;5127289;27;20568;-76
2022/07/15 07:15:20;;;;;;;4.80;1.20;;;;;;;25.22;34.79;99325.09;5120164;27;20485;-77
2022/07/15 07:17:47;;;;;;;5.22;1.20;;;;;;;25.28;34.89;99325.94;5125396;27;20417;-78
2022/07/15 07:20:14;;;;;;;4.07;1.10;;;;;;;25.21;34.33;99328.16;5128260;27;20043;-78
2022/07/15 07:22:40;;;;;;;2.08;0.82;;;;;;;25.23;34.77;99329.56;5127542;27;20458;-77
2022/07/15 07:25:09;;;;;;;4.75;0.90;;;;;;;26.03;34.42;99330.06;5128285;27;20543;-77
2022/07/15 07:27:35;;;;;;;8.35;1.90;;;;;;;25.68;34.42;99335.38;5128511;27;20082;-78
2022/07/15 07:30:04;;;;;;;4.75;1.17;;;;;;;25.71;33.40;99332.03;5125058;27;20044;-77
2022/07/15 07:32:30;;;;;;;3.63;0.90;;;;;;;25.88;32.35;99342.03;5124017;27;20096;-77
2022/07/15 07:34:58;;;;;;;3.92;0.88;;;;;;;25.64;30.65;99328.75;5127903;27;20058;-78
2022/07/15 07:37:24;;;;;;;2.53;0.90;;;;;;;25.60;31.92;99330.41;5128297;27;20085;-78
2022/07/15 07:39:51;;;;;;;3.28;1.30;;;;;;;25.76;31.20;99325.66;5127874;27;20216;-77
2022/07/15 07:42:19;;;;;;;2.80;1.20;;;;;;;25.93;32.14;99316.97;5127280;27;20111;-77
2022/07/15 07:44:46;;;;;;;2.35;1.10;;;;;;;25.75;30.86;99315.63;5127779;27;20406;-77
2022/07/15 07:47:13;;;;;;;2.55;1.10;;;;;;;25.78;31.45;99320.63;5119935;28;20070;-78
2022/07/15 07:49:39;;;;;;;4.85;1.27;;;;;;;25.57;31.29;99325.41;5124473;27;20193;-77
2022/07/15 07:52:06;;;;;;;3.70;1.38;;;;;;;26.00;30.53;99311.97;5126656;27;20066;-77
2022/07/15 07:54:33;;;;;;;2.53;1.10;;;;;;;26.16;30.94;99326.66;5127845;27;20047;-78
2022/07/15 07:56:59;;;;;;;4.28;1.05;;;;;;;25.68;30.80;99318.69;5125644;27;20047;-77
2022/07/15 07:59:27;;;;;;;5.13;1.33;;;;;;;25.97;31.43;99321.69;5126434;27;20134;-77
2022/07/15 08:01:54;;;;;;;6.72;1.40;;;;;;;25.90;31.38;99318.38;5112064;27;20048;-77
2022/07/15 08:04:21;;;;;;;5.72;1.05;;;;;;;25.71;31.29;99320.09;5109259;28;20044;-78
2022/07/15 08:06:48;;;;;;;4.00;1.15;;;;;;;25.85;30.58;99315.59;5113811;28;20054;-78
2022/07/15 08:09:14;;;;;;;2.00;1.13;;;;;;;25.45;31.26;99314.56;5113575;28;20044;-77
2022/07/15 08:11:41;;;;;;;3.35;1.42;;;;;;;25.51;31.07;99302.31;5113831;28;20079;-77
2022/07/15 08:14:09;;;;;;;2.58;1.52;;;;;;;25.72;31.55;99303.09;5113171;28;20040;-78
2022/07/15 08:16:42;;;;;;;5.85;0.95;;;;;;;25.64;31.57;99294.47;5111924;28;20043;-78
2022/07/15 08:19:08;;;;;;;2.55;0.93;;;;;;;25.31;31.92;99297.59;5108415;28;20130;-77
2022/07/15 08:21:35;;;;;;;5.68;1.30;;;;;;;25.06;32.14;99310.34;5110160;28;20052;-78
2022/07/15 08:24:01;;;;;;;3.88;1.30;;;;;;;24.78;33.32;99322.00;5108492;28;20055;-77
2022/07/15 08:26:28;;;;;;;5.93;1.52;;;;;;;25.28;32.54;99317.59;5113513;27;20079;-77
2022/07/15 08:28:55;;;;;;;2.95;1.25;;;;;;;25.43;32.32;99306.47;5113160;28;20051;-77
2022/07/15 08:31:21;;;;;;;2.25;0.98;;;;;;;25.51;31.77;99296.72;5111498;28;20055;-77
2022/07/15 08:33:49;;;;;;;2.17;1.20;;;;;;;25.58;31.20;99313.97;5112462;28;20067;-77
2022/07/15 08:36:16;;;;;;;5.68;1.38;;;;;;;25.37;31.97;99315.97;5107895;28;20040;-77
2022/07/15 08:38:42;;;;;;;4.65;1.17;;;;;;;25.83;31.38;99305.84;5102776;28;20051;-77
2022/07/15 08:41:09;;;;;;;5.50;1.20;;;;;;;25.56;31.54;99310.66;5113047;28;20051;-77
2022/07/15 08:43:35;;;;;;;3.53;1.27;;;;;;;25.25;32.11;99298.69;5112496;28;20075;-77
2022/07/15 08:46:02;;;;;;;5.07;1.10;;;;;;;25.18;31.79;99307.28;5110932;28;20058;-77
2022/07/15 08:48:30;;;;;;;2.90;1.20;;;;;;;25.32;31.88;99320.69;5104672;28;20529;-78
2022/07/15 08:51:03;;;;;;;3.50;1.20;;;;;;;25.64;31.82;99314.81;5112994;28;20491;-77
2022/07/15 08:53:30;;;;;;;2.72;1.30;;;;;;;25.22;32.48;99308.41;5110906;28;20052;-77
2022/07/15 08:55:57;;;;;;;4.18;1.27;;;;;;;25.50;31.57;99325.66;5110660;28;20055;-77
2022/07/15 08:58:24;;;;;;;4.72;1.08;;;;;;;25.23;31.36;99314.81;5110835;28;20062;-78
2022/07/15 09:00:51;;;;;;;5.55;1.00;;;;;;;25.14;32.02;99316.47;5107300;28;20043;-78
2022/07/15 09:03:17;;;;;;;2.45;1.15;;;;;;;24.94;31.98;99297.84;5111808;27;20047;-77
2022/07/15 09:05:44;;;;;;;4.68;1.20;;;;;;;25.15;31.81;99309.81;5107481;28;20453;-77
2022/07/15 09:08:14;;;;;;;3.13;1.35;;;;;;;25.19;32.05;99325.66;5101052;28;20046;-78
2022/07/15 09:10:43;;;;;;;4.72;1.05;;;;;;;24.94;31.47;99308.97;5112199;28;20051;-77
2022/07/15 09:13:11;;;;;;;3.47;1.27;;;;;;;25.44;31.52;99307.31;5105197;28;20048;-78
2022/07/15 09:15:40;;;;;;;6.55;1.58;;;;;;;25.37;31.07;99315.97;5107294;28;20309;-77
